createdAt,value
2022-10-20T00:00:18.708Z,10.70
2022-10-20T00:02:48.526Z,10.65
2022-10-20T00:05:18.887Z,10.83
2022-10-20T00:07:48.986Z,10.83
2022-10-20T00:10:18.800Z,10.61
2022-10-20T00:12:48.556Z,10.52
2022-10-20T00:15:18.607Z,10.54
2022-10-20T00:17:48.643Z,10.66
2022-10-20T00:20:18.443Z,10.66
2022-10-20T00:22:48.401Z,10.66
2022-10-20T00:25:18.133Z,10.66
2022-10-20T00:27:47.871Z,10.39
2022-10-20T00:30:20.358Z,10.64
2022-10-20T00:32:49.759Z,10.76
2022-10-20T00:35:19.517Z,10.62
2022-10-20T00:37:49.328Z,10.34
2022-10-20T00:40:19.135Z,10.72
2022-10-20T00:42:49.416Z,10.53
2022-10-20T00:45:22.506Z,10.52
2022-10-20T00:48:00.407Z,10.67
2022-10-20T00:50:41.779Z,10.71
2022-10-20T00:53:12.153Z,10.67
2022-10-20T00:55:45.268Z,10.49
2022-10-20T00:58:15.955Z,10.46
2022-10-20T01:00:47.236Z,10.56
2022-10-20T01:03:22.500Z,10.36
2022-10-20T01:05:52.127Z,10.42
2022-10-20T01:08:21.984Z,10.46
2022-10-20T01:10:54.767Z,10.40
2022-10-20T01:13:42.340Z,10.41
2022-10-20T01:16:27.968Z,10.23
2022-10-20T01:22:01.914Z,10.40
2022-10-20T01:24:52.339Z,10.32
2022-10-20T01:27:30.873Z,10.35
2022-10-20T01:30:09.232Z,10.22
2022-10-20T01:33:02.761Z,10.30
2022-10-20T01:35:53.353Z,10.45
2022-10-20T01:38:25.840Z,10.42
2022-10-20T01:41:04.037Z,10.41
2022-10-20T01:43:37.090Z,10.41
2022-10-20T01:46:10.607Z,10.23
2022-10-20T01:48:41.464Z,10.10
2022-10-20T01:51:11.636Z,10.17
2022-10-20T01:53:41.090Z,10.30
2022-10-20T01:56:17.277Z,10.25
2022-10-20T01:58:55.587Z,10.25
2022-10-20T02:02:02.922Z,10.17
2022-10-20T02:04:58.067Z,10.16
2022-10-20T02:07:32.118Z,10.02
2022-10-20T02:10:19.761Z,10.23
2022-10-20T02:12:52.555Z,10.34
2022-10-20T02:15:25.039Z,10.34
2022-10-20T02:17:57.865Z,10.48
2022-10-20T02:20:29.138Z,10.49
2022-10-20T02:23:01.487Z,10.37
2022-10-20T02:25:33.786Z,10.36
2022-10-20T02:28:05.499Z,10.19
2022-10-20T02:30:36.278Z,10.23
2022-10-20T02:33:07.160Z,10.24
2022-10-20T02:35:36.893Z,10.44
2022-10-20T02:38:08.165Z,10.36
2022-10-20T02:40:37.962Z,10.44
2022-10-20T02:43:07.695Z,10.32
2022-10-20T02:45:37.443Z,10.35
2022-10-20T02:48:12.367Z,10.27
2022-10-20T02:50:42.239Z,10.38
2022-10-20T02:53:11.967Z,10.54
2022-10-20T02:55:43.453Z,10.39
2022-10-20T02:58:13.320Z,10.47
2022-10-20T03:00:43.132Z,10.42
2022-10-20T03:03:12.889Z,10.42
2022-10-20T03:05:44.396Z,10.51
2022-10-20T03:08:14.391Z,10.52
2022-10-20T03:10:44.133Z,10.57
2022-10-20T03:13:15.446Z,10.48
2022-10-20T03:15:45.193Z,10.41
2022-10-20T03:18:14.947Z,10.39
2022-10-20T03:20:45.522Z,10.35
2022-10-20T03:23:17.783Z,10.44
2022-10-20T03:25:46.725Z,10.44
2022-10-20T03:28:16.257Z,10.46
2022-10-20T03:30:47.077Z,10.40
2022-10-20T03:33:16.810Z,10.40
2022-10-20T03:35:46.569Z,10.60
2022-10-20T03:38:16.006Z,10.60
2022-10-20T03:40:45.824Z,10.33
2022-10-20T03:43:18.647Z,10.41
2022-10-20T03:45:48.372Z,10.49
2022-10-20T03:48:18.082Z,10.44
2022-10-20T03:50:47.852Z,10.58
2022-10-20T03:53:17.610Z,10.65
2022-10-20T03:55:47.416Z,10.58
2022-10-20T03:58:17.572Z,10.65
2022-10-20T04:00:47.847Z,10.54
2022-10-20T04:03:17.678Z,10.44
2022-10-20T04:05:47.395Z,10.71
2022-10-20T04:08:16.975Z,10.64
2022-10-20T04:10:47.016Z,10.75
2022-10-20T04:13:16.772Z,10.73
2022-10-20T04:15:46.512Z,10.69
2022-10-20T04:18:16.036Z,10.89
2022-10-20T04:20:45.508Z,10.65
2022-10-20T04:23:15.817Z,10.95
2022-10-20T04:25:47.614Z,11.13
2022-10-20T04:28:18.905Z,11.09
2022-10-20T04:30:49.113Z,10.92
2022-10-20T04:33:18.878Z,11.12
2022-10-20T04:38:18.058Z,10.97
2022-10-20T04:40:50.838Z,11.05
2022-10-20T04:43:20.594Z,11.05
2022-10-20T04:45:50.396Z,11.07
2022-10-20T04:48:20.049Z,10.92
2022-10-20T04:50:51.304Z,11.27
2022-10-20T04:53:21.048Z,11.14
2022-10-20T04:55:58.382Z,11.23
2022-10-20T04:58:28.022Z,11.23
2022-10-20T05:01:03.412Z,11.16
2022-10-20T05:03:33.686Z,11.28
2022-10-20T05:06:17.353Z,11.31
2022-10-20T05:08:49.688Z,11.31
2022-10-20T05:11:21.456Z,11.43
2022-10-20T05:13:51.942Z,11.33
2022-10-20T05:16:21.688Z,11.33
2022-10-20T05:18:52.331Z,11.27
2022-10-20T05:21:24.724Z,11.49
2022-10-20T05:24:01.996Z,11.49
2022-10-20T05:26:35.744Z,11.36
2022-10-20T05:29:07.615Z,11.47
2022-10-20T05:31:44.597Z,11.36
2022-10-20T05:34:14.036Z,11.41
2022-10-20T05:36:43.790Z,11.64
2022-10-20T05:39:13.673Z,11.51
2022-10-20T05:41:43.434Z,11.63
2022-10-20T05:44:14.099Z,11.69
2022-10-20T05:46:43.934Z,11.59
2022-10-20T05:49:16.519Z,11.75
2022-10-20T05:51:47.365Z,11.68
2022-10-20T05:54:17.288Z,11.71
2022-10-20T05:56:47.045Z,11.52
2022-10-20T05:59:16.790Z,11.78
2022-10-20T06:01:49.534Z,11.30
2022-10-20T06:04:25.135Z,11.45
2022-10-20T06:06:55.306Z,11.57
2022-10-20T06:09:25.243Z,11.76
2022-10-20T06:11:55.402Z,11.68
2022-10-20T06:14:25.795Z,11.69
2022-10-20T06:16:56.886Z,11.75
2022-10-20T06:19:27.250Z,11.60
2022-10-20T06:21:57.022Z,11.69
2022-10-20T06:24:26.516Z,11.57
2022-10-20T06:26:56.552Z,11.57
2022-10-20T06:29:26.729Z,11.51
2022-10-20T06:31:56.902Z,11.56
2022-10-20T06:34:27.028Z,11.73
2022-10-20T06:36:56.775Z,11.73
2022-10-20T06:39:26.779Z,11.65
2022-10-20T06:41:56.549Z,11.74
2022-10-20T06:44:28.266Z,11.88
2022-10-20T06:46:58.020Z,11.88
2022-10-20T06:49:27.788Z,11.83
2022-10-20T06:51:57.596Z,11.83
2022-10-20T06:54:27.373Z,11.73
2022-10-20T06:56:57.164Z,11.81
2022-10-20T06:59:27.023Z,11.79
2022-10-20T07:01:56.849Z,11.79
2022-10-20T07:04:26.476Z,11.92
2022-10-20T07:06:56.511Z,11.92
2022-10-20T07:09:26.395Z,11.70
2022-10-20T07:11:56.142Z,11.91
2022-10-20T07:14:26.277Z,11.86
2022-10-20T07:16:56.106Z,12.08
2022-10-20T07:19:25.903Z,11.98
2022-10-20T07:21:55.504Z,12.04
2022-10-20T07:24:25.379Z,12.21
2022-10-20T07:26:55.162Z,12.25
2022-10-20T07:29:25.066Z,12.13
2022-10-20T07:31:56.017Z,12.35
2022-10-20T07:34:27.637Z,12.18
2022-10-20T07:36:58.324Z,12.26
2022-10-20T07:39:28.508Z,12.36
2022-10-20T07:41:58.327Z,12.50
2022-10-20T07:44:27.823Z,12.58
2022-10-20T07:46:57.565Z,12.37
2022-10-20T07:49:44.351Z,12.34
2022-10-20T07:51:58.749Z,12.70
2022-10-20T07:54:28.285Z,12.58
2022-10-20T07:56:58.074Z,12.24
2022-10-20T07:59:28.416Z,12.44
2022-10-20T08:01:59.940Z,12.45
2022-10-20T08:04:31.587Z,12.33
2022-10-20T08:07:01.754Z,12.77
2022-10-20T08:09:33.645Z,12.72
2022-10-20T08:12:03.914Z,13.19
2022-10-20T08:14:35.306Z,12.82
2022-10-20T08:17:05.421Z,12.95
2022-10-20T08:19:51.829Z,13.13
2022-10-20T08:22:13.031Z,13.37
2022-10-20T08:24:42.855Z,13.18
2022-10-20T08:27:12.347Z,13.47
2022-10-20T08:29:47.729Z,13.48
2022-10-20T08:32:14.193Z,13.45
2022-10-20T08:34:43.955Z,13.59
2022-10-20T08:37:13.720Z,13.72
2022-10-20T08:39:43.211Z,13.75
2022-10-20T08:42:12.803Z,13.70
2022-10-20T08:44:45.608Z,13.91
2022-10-20T08:47:25.692Z,13.82
2022-10-20T08:49:55.884Z,13.93
2022-10-20T08:52:27.172Z,13.93
2022-10-20T08:54:58.443Z,13.82
2022-10-20T08:57:33.380Z,14.09
2022-10-20T09:00:20.634Z,14.32
2022-10-20T09:02:52.017Z,14.44
2022-10-20T09:05:27.711Z,14.81
2022-10-20T09:07:57.914Z,14.63
2022-10-20T09:10:33.467Z,14.56
2022-10-20T09:13:05.785Z,14.85
2022-10-20T09:15:35.562Z,14.76
2022-10-20T09:18:09.719Z,14.99
2022-10-20T09:20:42.494Z,14.90
2022-10-20T09:23:35.460Z,14.78
2022-10-20T09:25:48.375Z,14.78
2022-10-20T09:28:26.841Z,14.89
2022-10-20T09:30:57.920Z,14.87
2022-10-20T09:33:33.617Z,14.89
2022-10-20T09:36:08.230Z,15.13
2022-10-20T09:38:40.263Z,14.95
2022-10-20T09:41:15.754Z,14.99
2022-10-20T09:43:53.166Z,15.11
2022-10-20T09:46:25.723Z,15.21
2022-10-20T09:48:57.165Z,15.07
2022-10-20T09:51:29.239Z,14.85
2022-10-20T09:54:02.163Z,14.98
2022-10-20T09:56:40.480Z,15.12
2022-10-20T09:59:31.660Z,14.88
2022-10-20T10:02:06.876Z,15.13
2022-10-20T10:04:39.101Z,15.12
2022-10-20T10:07:30.351Z,15.12
2022-10-20T10:10:05.593Z,15.30
2022-10-20T10:12:35.956Z,15.38
2022-10-20T10:15:11.317Z,15.47
2022-10-20T10:17:43.784Z,15.49
2022-10-20T10:20:17.825Z,15.53
2022-10-20T10:22:47.625Z,15.74
2022-10-20T10:25:22.933Z,15.87
2022-10-20T10:28:03.198Z,15.52
2022-10-20T10:30:35.102Z,15.45
2022-10-20T10:33:19.290Z,15.67
2022-10-20T10:35:49.114Z,15.39
2022-10-20T10:38:19.003Z,15.23
2022-10-20T10:41:18.466Z,15.23
2022-10-20T10:43:53.831Z,15.23
2022-10-20T10:46:28.860Z,15.45
2022-10-20T10:49:33.266Z,15.56
2022-10-20T10:52:11.494Z,15.49
2022-10-20T10:54:59.142Z,15.31
2022-10-20T10:57:54.079Z,15.31
2022-10-20T11:00:44.910Z,15.44
2022-10-20T11:03:23.355Z,15.50
2022-10-20T11:06:10.996Z,15.21
2022-10-20T11:08:55.831Z,15.35
2022-10-20T11:11:46.064Z,15.12
2022-10-20T11:14:30.716Z,15.30
2022-10-20T11:17:22.586Z,15.05
2022-10-20T11:19:55.650Z,15.03
2022-10-20T11:22:44.757Z,14.70
2022-10-20T11:25:19.986Z,14.85
2022-10-20T11:27:50.212Z,14.58
2022-10-20T11:30:22.225Z,14.58
2022-10-20T11:33:03.904Z,14.56
2022-10-20T11:35:36.754Z,14.56
2022-10-20T11:38:17.843Z,14.58
2022-10-20T11:40:55.693Z,14.61
2022-10-20T11:43:28.233Z,14.46
2022-10-20T11:46:07.005Z,14.52
2022-10-20T11:48:54.078Z,14.55
2022-10-20T11:51:32.662Z,14.55
2022-10-20T11:54:14.236Z,14.39
2022-10-20T11:57:08.001Z,14.67
2022-10-20T11:59:47.962Z,14.62
2022-10-20T12:02:26.292Z,14.63
2022-10-20T12:05:18.552Z,14.61
2022-10-20T12:08:29.421Z,14.58
2022-10-20T12:11:13.122Z,14.58
2022-10-20T12:13:48.128Z,14.64
2022-10-20T12:16:55.087Z,14.46
2022-10-20T12:19:27.310Z,14.32
2022-10-20T12:22:05.963Z,14.39
2022-10-20T12:24:40.380Z,14.25
2022-10-20T12:27:13.186Z,14.48
2022-10-20T12:29:46.083Z,14.39
2022-10-20T12:32:24.297Z,14.86
2022-10-20T12:34:57.299Z,14.86
2022-10-20T12:37:30.163Z,14.98
2022-10-20T12:40:08.883Z,15.05
2022-10-20T12:42:50.868Z,15.18
2022-10-20T12:45:26.119Z,15.26
2022-10-20T12:48:01.427Z,15.62
2022-10-20T12:50:45.289Z,15.43
2022-10-20T12:53:21.006Z,15.34
2022-10-20T12:56:10.559Z,15.57
2022-10-20T12:58:59.763Z,15.43
2022-10-20T13:01:29.560Z,15.26
2022-10-20T13:03:59.436Z,15.49
2022-10-20T13:06:33.088Z,15.25
2022-10-20T13:09:10.709Z,15.13
2022-10-20T13:11:44.677Z,15.17
2022-10-20T13:14:19.817Z,15.30
2022-10-20T13:17:07.000Z,15.16
2022-10-20T13:19:45.490Z,15.17
2022-10-20T13:22:39.321Z,15.33
2022-10-20T13:25:29.734Z,15.41
2022-10-20T13:28:20.668Z,15.44
2022-10-20T13:31:09.925Z,15.62
2022-10-20T13:34:08.461Z,15.58
2022-10-20T13:36:57.796Z,16.06
2022-10-20T13:39:36.116Z,16.30
2022-10-20T13:42:25.901Z,16.64
2022-10-20T13:45:01.395Z,16.77
2022-10-20T13:47:56.160Z,16.88
2022-10-20T13:50:37.691Z,16.72
2022-10-20T13:53:20.979Z,16.85
2022-10-20T13:56:02.383Z,16.83
2022-10-20T13:58:32.449Z,16.57
2022-10-20T14:01:05.231Z,16.60
2022-10-20T14:03:43.307Z,16.60
2022-10-20T14:06:38.070Z,16.57
2022-10-20T14:09:13.435Z,16.72
2022-10-20T14:11:45.041Z,16.95
2022-10-20T14:14:20.987Z,16.56
2022-10-20T14:16:59.319Z,16.69
2022-10-20T14:19:32.923Z,16.63
2022-10-20T14:22:17.582Z,16.60
2022-10-20T14:24:49.216Z,16.66
2022-10-20T14:27:30.906Z,17.06
2022-10-20T14:30:02.918Z,17.44
2022-10-20T14:32:35.413Z,17.38
2022-10-20T14:35:23.514Z,17.60
2022-10-20T14:38:05.542Z,17.56
2022-10-20T14:40:37.773Z,17.73
2022-10-20T14:43:19.704Z,17.83
2022-10-20T14:46:00.939Z,17.82
2022-10-20T14:48:36.447Z,17.92
2022-10-20T14:51:25.166Z,18.04
2022-10-20T14:54:14.298Z,17.65
2022-10-20T14:56:58.730Z,17.54
2022-10-20T14:59:31.258Z,17.53
2022-10-20T15:02:17.138Z,17.49
2022-10-20T15:04:48.488Z,17.50
2022-10-20T15:07:23.762Z,17.49
2022-10-20T15:10:04.311Z,17.51
2022-10-20T15:12:39.845Z,17.78
2022-10-20T15:17:41.775Z,17.62
2022-10-20T15:20:33.963Z,17.42
2022-10-20T15:23:15.368Z,17.63
2022-10-20T15:26:04.130Z,17.57
2022-10-20T15:28:39.566Z,17.71
2022-10-20T15:31:20.920Z,17.64
2022-10-20T15:33:51.259Z,17.51
2022-10-20T15:36:25.201Z,17.43
2022-10-20T15:38:55.298Z,17.58
2022-10-20T15:41:28.082Z,17.41
2022-10-20T15:43:59.622Z,17.31
2022-10-20T15:46:29.676Z,17.39
2022-10-20T15:48:59.492Z,17.19
2022-10-20T15:51:31.887Z,16.72
2022-10-20T15:54:02.450Z,16.95
2022-10-20T15:56:32.904Z,17.03
2022-10-20T15:59:03.053Z,16.95
2022-10-20T16:01:32.941Z,16.76
2022-10-20T16:04:22.281Z,16.90
2022-10-20T16:06:58.875Z,16.51
2022-10-20T16:09:27.111Z,16.31
2022-10-20T16:11:56.979Z,16.58
2022-10-20T16:14:26.541Z,16.79
2022-10-20T16:17:01.684Z,16.59
2022-10-20T16:19:32.333Z,16.39
2022-10-20T16:22:02.088Z,16.36
2022-10-20T16:24:31.921Z,16.32
2022-10-20T16:29:33.804Z,16.03
2022-10-20T16:32:03.644Z,16.13
2022-10-20T16:34:33.823Z,15.95
2022-10-20T16:37:03.652Z,15.88
2022-10-20T16:39:33.782Z,15.69
2022-10-20T16:42:04.961Z,15.69
2022-10-20T16:44:34.881Z,15.69
2022-10-20T16:47:04.933Z,15.63
2022-10-20T16:49:34.902Z,15.63
2022-10-20T16:52:06.813Z,15.64
2022-10-20T16:54:37.792Z,15.32
2022-10-20T16:57:09.213Z,15.32
2022-10-20T16:59:39.620Z,15.56
2022-10-20T17:02:13.307Z,15.50
2022-10-20T17:04:43.102Z,15.53
2022-10-20T17:07:12.865Z,15.47
2022-10-20T17:09:42.670Z,15.36
2022-10-20T17:12:12.143Z,15.25
2022-10-20T17:14:42.972Z,15.32
2022-10-20T17:17:12.748Z,15.27
2022-10-20T17:19:43.265Z,15.18
2022-10-20T17:22:13.076Z,15.11
2022-10-20T17:24:42.862Z,15.09
2022-10-20T17:27:12.704Z,15.04
2022-10-20T17:29:42.450Z,15.04
2022-10-20T17:32:14.432Z,14.97
2022-10-20T17:34:43.665Z,14.97
2022-10-20T17:37:13.739Z,15.02
2022-10-20T17:39:43.289Z,15.11
2022-10-20T17:42:13.041Z,15.09
2022-10-20T17:44:42.818Z,15.02
2022-10-20T17:47:12.866Z,14.88
2022-10-20T17:49:42.920Z,14.81
2022-10-20T17:52:12.396Z,14.81
2022-10-20T17:54:42.151Z,14.80
2022-10-20T17:57:11.951Z,14.87
2022-10-20T17:59:52.480Z,14.81
2022-10-20T18:02:13.225Z,14.87
2022-10-20T18:04:43.053Z,14.89
2022-10-20T18:07:12.796Z,14.92
2022-10-20T18:09:43.283Z,14.84
2022-10-20T18:12:14.286Z,14.76
2022-10-20T18:14:44.033Z,14.86
2022-10-20T18:17:13.937Z,14.81
2022-10-20T18:19:43.675Z,14.69
2022-10-20T18:22:13.493Z,14.59
2022-10-20T18:24:43.540Z,14.61
2022-10-20T18:27:13.884Z,14.84
2022-10-20T18:29:43.729Z,14.83
2022-10-20T18:32:13.792Z,14.57
2022-10-20T18:34:43.758Z,14.69
2022-10-20T18:37:15.155Z,14.89
2022-10-20T18:39:48.555Z,14.93
2022-10-20T18:42:18.152Z,14.86
2022-10-20T18:44:47.900Z,14.90
2022-10-20T18:47:17.684Z,14.83
2022-10-20T18:49:47.809Z,14.79
2022-10-20T18:52:17.346Z,14.79
2022-10-20T18:54:47.097Z,14.95
2022-10-20T18:57:16.948Z,14.78
2022-10-20T18:59:46.693Z,14.86
2022-10-20T19:02:16.186Z,14.86
2022-10-20T19:04:46.012Z,14.87
2022-10-20T19:07:15.778Z,14.82
2022-10-20T19:09:45.512Z,14.90
2022-10-20T19:12:15.182Z,14.90
2022-10-20T19:14:45.003Z,14.74
2022-10-20T19:17:14.502Z,14.88
2022-10-20T19:19:44.611Z,14.92
2022-10-20T19:22:14.076Z,14.74
2022-10-20T19:24:43.850Z,14.72
2022-10-20T19:27:26.002Z,14.86
2022-10-20T19:29:45.150Z,14.88
2022-10-20T19:32:14.617Z,14.73
2022-10-20T19:34:45.111Z,14.91
2022-10-20T19:37:14.929Z,14.77
2022-10-20T19:39:44.716Z,14.87
2022-10-20T19:42:14.476Z,14.69
2022-10-20T19:44:45.299Z,14.75
2022-10-20T19:47:15.766Z,14.83
2022-10-20T19:49:45.569Z,14.82
2022-10-20T19:52:15.164Z,14.75
2022-10-20T19:54:44.953Z,14.75
2022-10-20T19:57:14.677Z,14.88
2022-10-20T19:59:44.780Z,14.74
2022-10-20T20:02:14.260Z,14.75
2022-10-20T20:04:44.158Z,14.86
2022-10-20T20:07:14.315Z,14.89
2022-10-20T20:09:44.667Z,14.59
2022-10-20T20:12:14.937Z,14.39
2022-10-20T20:14:44.722Z,14.45
2022-10-20T20:17:14.499Z,14.45
2022-10-20T20:19:44.261Z,14.51
2022-10-20T20:22:13.762Z,14.48
2022-10-20T20:24:43.558Z,14.67
2022-10-20T20:27:13.316Z,14.32
2022-10-20T20:29:43.094Z,14.50
2022-10-20T20:32:12.568Z,14.42
2022-10-20T20:34:42.687Z,14.42
2022-10-20T20:37:12.479Z,14.58
2022-10-20T20:39:42.297Z,14.54
2022-10-20T20:42:12.084Z,14.40
2022-10-20T20:44:41.920Z,14.34
2022-10-20T20:47:11.673Z,14.40
2022-10-20T20:49:41.203Z,14.55
2022-10-20T20:52:11.642Z,14.47
2022-10-20T20:54:41.409Z,14.39
2022-10-20T20:57:11.183Z,14.23
2022-10-20T20:59:40.918Z,14.22
2022-10-20T21:02:11.720Z,14.23
2022-10-20T21:04:41.484Z,14.22
2022-10-20T21:07:12.478Z,14.30
2022-10-20T21:09:42.320Z,14.27
2022-10-20T21:14:41.554Z,14.45
2022-10-20T21:17:11.610Z,14.37
2022-10-20T21:19:41.635Z,14.35
2022-10-20T21:22:11.879Z,14.34
2022-10-20T21:24:42.015Z,14.33
2022-10-20T21:27:11.850Z,14.29
2022-10-20T21:29:45.593Z,14.22
2022-10-20T21:32:13.145Z,14.37
2022-10-20T21:34:42.896Z,14.33
2022-10-20T21:37:12.636Z,14.15
2022-10-20T21:39:42.784Z,14.12
2022-10-20T21:42:12.547Z,14.19
2022-10-20T21:44:42.974Z,14.24
2022-10-20T21:47:12.736Z,14.34
2022-10-20T21:49:42.249Z,14.22
2022-10-20T21:52:12.026Z,14.21
2022-10-20T21:54:41.892Z,14.02
2022-10-20T21:57:11.620Z,14.10
2022-10-20T21:59:41.092Z,14.10
2022-10-20T22:02:13.800Z,14.02
2022-10-20T22:04:43.662Z,14.03
2022-10-20T22:07:13.740Z,14.06
2022-10-20T22:09:43.223Z,14.06
2022-10-20T22:12:12.968Z,14.00
2022-10-20T22:14:45.027Z,14.15
2022-10-20T22:17:14.631Z,14.23
2022-10-20T22:19:46.349Z,14.39
2022-10-20T22:22:15.830Z,14.25
2022-10-20T22:24:45.669Z,14.23
2022-10-20T22:27:25.253Z,14.27
2022-10-20T22:29:46.996Z,14.30
2022-10-20T22:32:16.749Z,14.35
2022-10-20T22:34:46.489Z,14.24
2022-10-20T22:37:16.272Z,14.31
2022-10-20T22:39:46.026Z,14.32
2022-10-20T22:42:15.559Z,14.23
2022-10-20T22:44:45.500Z,14.44
2022-10-20T22:47:15.446Z,14.18
2022-10-20T22:49:45.197Z,14.32
2022-10-20T22:52:14.976Z,14.32
2022-10-20T22:54:44.778Z,14.41
2022-10-20T22:57:14.274Z,14.41
2022-10-20T22:59:43.995Z,14.24
2022-10-20T23:02:13.470Z,14.36
2022-10-20T23:04:43.598Z,14.44
2022-10-20T23:07:13.789Z,14.44
2022-10-20T23:09:43.561Z,14.53
2022-10-20T23:12:13.329Z,14.48
2022-10-20T23:14:43.068Z,14.50
2022-10-20T23:17:12.865Z,14.54
2022-10-20T23:19:42.630Z,14.55
2022-10-20T23:22:12.289Z,14.63
2022-10-20T23:24:42.792Z,14.56
2022-10-20T23:27:12.548Z,14.57
2022-10-20T23:29:42.286Z,14.56
2022-10-20T23:32:12.085Z,14.64
2022-10-20T23:34:41.852Z,14.56
2022-10-20T23:37:11.663Z,14.50
2022-10-20T23:39:41.167Z,14.73
2022-10-20T23:42:11.385Z,14.52
2022-10-20T23:44:42.913Z,14.60
2022-10-20T23:47:12.729Z,14.43
2022-10-20T23:49:42.520Z,14.51
2022-10-20T23:52:12.270Z,14.57
2022-10-20T23:54:42.042Z,14.67
2022-10-20T23:57:11.914Z,14.65
2022-10-20T23:59:41.681Z,14.78
